Lagos Airfield ULM

PT-0025 · Faro, 葡萄牙

罗盘
风向 的 Lagos Airfield ULM 12/30
风: 0 kt, 0 beaufort


改变
0 ft 1.000 2.000 3.000 4.000 5.000
CAVOK
METAR LPFR 032330Z 00000KT CAVOK 08/05 Q1030

METAR Lagos Airfield ULM - PT-0025

Lagos Airfield ULM是,葡萄牙中的小机场。 该机场有一条跑道: 12/30. 该领域的国际民航组织标志是PT-0025.

这份报告是针对2023年2月3日 23:30, 当地时间在Faro Airport进行的。

机场观察

可变方向的风很小或没有风。

天气为CAVOK。这意味着在5.000 ft或MSA(最低安全高度)以下(以较高者为准)以下没有云。这也意味着没有观测到积雨云或高耸的积云,可见度为10 km 或者更多或更高。此外,不会有雾,降雨或其他重要天气。

温度和风寒是8 °C。 露点为5 °C,相对湿度为82%。 海平面上的气压为1030 hPa (QNH)。

白天

今天,太阳从07:34升起,在18:02降落。 这适用于Lagos Airfield ULM,世界夏令时可能有所不同。 当地时间与世界标准时间之间的时差为+0 小时。 当前,没有夏令时有效。

公司介绍

在这个机场,你可以找到飞行俱乐部。 本场上唯一已知的公司是Fly365。

体会

到Vliegles.nl去找飞行课程,跳伞和其他飞行体验。 浏览页面,了解Lagos Airfield ULM附近所有可用的活动。 你也可以使用搜索功能来寻找你所在地附近的特定飞行课程、跳伞或其他飞行体验。

跑道

Id 标题 侧风 逆风 侧风 %
12/30 120°-300°

逆风成分最大的方向会被突出显示,并用于横风计算。 这并不一定意味着这个方向在使用。

温度 & 天气

温度 8 °C
露点 5 °C
相对湿度 82%
Kp-index 2 (0-9)

白天

日出
07:32 (7:28)
中午
12:45
日落
17:58

小工具

你想在你的网站上有一个关于Lagos Airfield ULM的当前航空天气(METAR)的小部件吗?

显示HTML代码

我们和第三方通过cookies跟踪您在我们网站上的互联网行为。如果你继续,我们认为你同意我们的饼干政策